sensor_id;sensor_type;location;lat;lon;timestamp;temperature;humidity
7512;DHT22;9999;48.780;9.146;2023-09-08T00:00:59;18.80;99.90
7512;DHT22;9999;48.780;9.146;2023-09-08T00:03:25;18.70;99.90
7512;DHT22;9999;48.780;9.146;2023-09-08T00:05:52;18.60;99.90
7512;DHT22;9999;48.780;9.146;2023-09-08T00:08:19;18.60;99.90
7512;DHT22;9999;48.780;9.146;2023-09-08T00:10:47;18.60;99.90
7512;DHT22;9999;48.780;9.146;2023-09-08T00:13:14;18.60;99.90
7512;DHT22;9999;48.780;9.146;2023-09-08T00:15:41;18.60;99.90
7512;DHT22;9999;48.780;9.146;2023-09-08T00:18:07;18.60;99.90
7512;DHT22;9999;48.780;9.146;2023-09-08T00:20:34;18.60;99.90
7512;DHT22;9999;48.780;9.146;2023-09-08T00:23:01;18.70;99.90
7512;DHT22;9999;48.780;9.146;2023-09-08T00:25:28;18.60;99.90
7512;DHT22;9999;48.780;9.146;2023-09-08T00:27:56;18.60;99.90
7512;DHT22;9999;48.780;9.146;2023-09-08T00:30:23;18.70;99.90
7512;DHT22;9999;48.780;9.146;2023-09-08T00:32:50;18.60;99.90
7512;DHT22;9999;48.780;9.146;2023-09-08T00:35:16;18.60;99.90
7512;DHT22;9999;48.780;9.146;2023-09-08T00:37:43;18.60;99.90
7512;DHT22;9999;48.780;9.146;2023-09-08T00:40:10;18.60;99.90
7512;DHT22;9999;48.780;9.146;2023-09-08T00:42:37;18.60;99.90
7512;DHT22;9999;48.780;9.146;2023-09-08T00:45:06;18.60;99.90
7512;DHT22;9999;48.780;9.146;2023-09-08T00:47:33;18.60;99.90
7512;DHT22;9999;48.780;9.146;2023-09-08T00:50:01;18.60;99.90
7512;DHT22;9999;48.780;9.146;2023-09-08T00:52:28;18.50;99.90
7512;DHT22;9999;48.780;9.146;2023-09-08T00:54:58;18.50;99.90
7512;DHT22;9999;48.780;9.146;2023-09-08T00:57:25;18.50;99.90
7512;DHT22;9999;48.780;9.146;2023-09-08T00:59:53;18.50;99.90
7512;DHT22;9999;48.780;9.146;2023-09-08T01:02:22;18.60;99.90
7512;DHT22;9999;48.780;9.146;2023-09-08T01:04:49;18.50;99.90
7512;DHT22;9999;48.780;9.146;2023-09-08T01:07:16;18.40;99.90
7512;DHT22;9999;48.780;9.146;2023-09-08T01:09:47;18.40;99.90
7512;DHT22;9999;48.780;9.146;2023-09-08T01:12:14;18.40;99.90
7512;DHT22;9999;48.780;9.146;2023-09-08T01:14:41;18.40;99.90
7512;DHT22;9999;48.780;9.146;2023-09-08T01:17:08;18.40;99.90
7512;DHT22;9999;48.780;9.146;2023-09-08T01:19:37;18.40;99.90
7512;DHT22;9999;48.780;9.146;2023-09-08T01:22:17;18.40;99.90
7512;DHT22;9999;48.780;9.146;2023-09-08T01:25:05;18.20;99.90
7512;DHT22;9999;48.780;9.146;2023-09-08T01:27:35;18.20;99.90
7512;DHT22;9999;48.780;9.146;2023-09-08T01:30:05;18.10;99.90
7512;DHT22;9999;48.780;9.146;2023-09-08T01:32:34;18.10;99.90
7512;DHT22;9999;48.780;9.146;2023-09-08T01:35:01;18.10;99.90
7512;DHT22;9999;48.780;9.146;2023-09-08T01:37:28;18.10;99.90
7512;DHT22;9999;48.780;9.146;2023-09-08T01:39:54;18.00;99.90
7512;DHT22;9999;48.780;9.146;2023-09-08T01:42:22;18.00;99.90
7512;DHT22;9999;48.780;9.146;2023-09-08T01:44:49;17.90;99.90
7512;DHT22;9999;48.780;9.146;2023-09-08T01:47:16;17.90;99.90
7512;DHT22;9999;48.780;9.146;2023-09-08T01:49:43;17.90;99.90
7512;DHT22;9999;48.780;9.146;2023-09-08T01:52:10;17.90;99.90
7512;DHT22;9999;48.780;9.146;2023-09-08T01:54:37;17.90;99.90
7512;DHT22;9999;48.780;9.146;2023-09-08T01:57:04;17.90;99.90
7512;DHT22;9999;48.780;9.146;2023-09-08T01:59:32;17.90;99.90
7512;DHT22;9999;48.780;9.146;2023-09-08T02:01:59;17.80;99.90
7512;DHT22;9999;48.780;9.146;2023-09-08T02:04:26;17.80;99.90
7512;DHT22;9999;48.780;9.146;2023-09-08T02:06:53;17.70;99.90
7512;DHT22;9999;48.780;9.146;2023-09-08T02:09:20;17.70;99.90
7512;DHT22;9999;48.780;9.146;2023-09-08T02:11:47;17.70;99.90
7512;DHT22;9999;48.780;9.146;2023-09-08T02:14:13;17.60;99.90
7512;DHT22;9999;48.780;9.146;2023-09-08T02:16:41;17.60;99.90
7512;DHT22;9999;48.780;9.146;2023-09-08T02:19:09;17.60;99.90
7512;DHT22;9999;48.780;9.146;2023-09-08T02:21:35;17.60;99.90
7512;DHT22;9999;48.780;9.146;2023-09-08T02:24:03;17.50;99.90
7512;DHT22;9999;48.780;9.146;2023-09-08T02:26:30;17.50;99.90
7512;DHT22;9999;48.780;9.146;2023-09-08T02:28:59;17.40;99.90
7512;DHT22;9999;48.780;9.146;2023-09-08T02:31:28;17.40;99.90
7512;DHT22;9999;48.780;9.146;2023-09-08T02:33:56;17.40;99.90
7512;DHT22;9999;48.780;9.146;2023-09-08T02:36:23;17.40;99.90
7512;DHT22;9999;48.780;9.146;2023-09-08T02:38:52;17.40;99.90
7512;DHT22;9999;48.780;9.146;2023-09-08T02:41:20;17.30;99.90
7512;DHT22;9999;48.780;9.146;2023-09-08T02:43:46;17.30;99.90
7512;DHT22;9999;48.780;9.146;2023-09-08T02:46:14;17.30;99.90
7512;DHT22;9999;48.780;9.146;2023-09-08T02:48:41;17.30;99.90
7512;DHT22;9999;48.780;9.146;2023-09-08T02:51:09;17.30;99.90
7512;DHT22;9999;48.780;9.146;2023-09-08T02:53:37;17.30;99.90
7512;DHT22;9999;48.780;9.146;2023-09-08T02:56:04;17.30;99.90
7512;DHT22;9999;48.780;9.146;2023-09-08T02:58:31;17.30;99.90
7512;DHT22;9999;48.780;9.146;2023-09-08T03:01:10;17.30;99.90
7512;DHT22;9999;48.780;9.146;2023-09-08T03:03:37;17.30;99.90
7512;DHT22;9999;48.780;9.146;2023-09-08T03:06:04;17.30;99.90
7512;DHT22;9999;48.780;9.146;2023-09-08T03:08:32;17.30;99.90
7512;DHT22;9999;48.780;9.146;2023-09-08T03:10:59;17.30;99.90
7512;DHT22;9999;48.780;9.146;2023-09-08T03:13:26;17.30;99.90
7512;DHT22;9999;48.780;9.146;2023-09-08T03:15:54;17.20;99.90
7512;DHT22;9999;48.780;9.146;2023-09-08T03:18:22;17.20;99.90
7512;DHT22;9999;48.780;9.146;2023-09-08T03:20:49;17.20;99.90
7512;DHT22;9999;48.780;9.146;2023-09-08T03:23:16;17.20;99.90
7512;DHT22;9999;48.780;9.146;2023-09-08T03:25:44;17.10;99.90
7512;DHT22;9999;48.780;9.146;2023-09-08T03:28:11;17.20;99.90
7512;DHT22;9999;48.780;9.146;2023-09-08T03:30:38;17.10;99.90
7512;DHT22;9999;48.780;9.146;2023-09-08T03:33:05;17.20;99.90
7512;DHT22;9999;48.780;9.146;2023-09-08T03:35:32;17.20;99.90
7512;DHT22;9999;48.780;9.146;2023-09-08T03:37:59;17.10;99.90
7512;DHT22;9999;48.780;9.146;2023-09-08T03:40:26;17.00;99.90
7512;DHT22;9999;48.780;9.146;2023-09-08T03:42:54;17.00;99.90
7512;DHT22;9999;48.780;9.146;2023-09-08T03:45:21;17.00;99.90
7512;DHT22;9999;48.780;9.146;2023-09-08T03:47:48;17.00;99.90
7512;DHT22;9999;48.780;9.146;2023-09-08T03:50:15;17.00;99.90
7512;DHT22;9999;48.780;9.146;2023-09-08T03:52:42;17.00;99.90
7512;DHT22;9999;48.780;9.146;2023-09-08T03:55:08;17.00;99.90
7512;DHT22;9999;48.780;9.146;2023-09-08T03:57:36;17.00;99.90
7512;DHT22;9999;48.780;9.146;2023-09-08T04:00:06;17.00;99.90
7512;DHT22;9999;48.780;9.146;2023-09-08T04:02:39;17.00;99.90
7512;DHT22;9999;48.780;9.146;2023-09-08T04:05:07;16.80;99.90
7512;DHT22;9999;48.780;9.146;2023-09-08T04:07:36;16.90;99.90
7512;DHT22;9999;48.780;9.146;2023-09-08T04:10:04;16.90;99.90
7512;DHT22;9999;48.780;9.146;2023-09-08T04:12:31;16.80;99.90
7512;DHT22;9999;48.780;9.146;2023-09-08T04:14:57;16.80;99.90
7512;DHT22;9999;48.780;9.146;2023-09-08T04:17:25;16.80;99.90
7512;DHT22;9999;48.780;9.146;2023-09-08T04:19:52;16.80;99.90
7512;DHT22;9999;48.780;9.146;2023-09-08T04:22:19;16.70;99.90
7512;DHT22;9999;48.780;9.146;2023-09-08T04:24:46;16.70;99.90
7512;DHT22;9999;48.780;9.146;2023-09-08T04:27:12;16.70;99.90
7512;DHT22;9999;48.780;9.146;2023-09-08T04:29:39;16.80;99.90
7512;DHT22;9999;48.780;9.146;2023-09-08T04:32:06;16.80;99.90
7512;DHT22;9999;48.780;9.146;2023-09-08T04:34:38;16.80;99.90
7512;DHT22;9999;48.780;9.146;2023-09-08T04:37:05;16.90;99.90
7512;DHT22;9999;48.780;9.146;2023-09-08T04:39:32;16.90;99.90
7512;DHT22;9999;48.780;9.146;2023-09-08T04:41:59;16.80;99.90
7512;DHT22;9999;48.780;9.146;2023-09-08T04:44:26;16.80;99.90
7512;DHT22;9999;48.780;9.146;2023-09-08T04:46:54;16.70;99.90
7512;DHT22;9999;48.780;9.146;2023-09-08T04:49:21;16.70;99.90
7512;DHT22;9999;48.780;9.146;2023-09-08T04:51:50;16.70;99.90
7512;DHT22;9999;48.780;9.146;2023-09-08T04:54:18;16.60;99.90
7512;DHT22;9999;48.780;9.146;2023-09-08T04:56:47;16.60;99.90
7512;DHT22;9999;48.780;9.146;2023-09-08T04:59:14;16.50;99.90
7512;DHT22;9999;48.780;9.146;2023-09-08T05:01:41;16.50;99.90
7512;DHT22;9999;48.780;9.146;2023-09-08T05:04:09;16.50;99.90
7512;DHT22;9999;48.780;9.146;2023-09-08T05:06:36;16.50;99.90
7512;DHT22;9999;48.780;9.146;2023-09-08T05:09:05;16.50;99.90
7512;DHT22;9999;48.780;9.146;2023-09-08T05:11:32;16.50;99.90
7512;DHT22;9999;48.780;9.146;2023-09-08T05:13:59;16.50;99.90
7512;DHT22;9999;48.780;9.146;2023-09-08T05:16:26;16.50;99.90
7512;DHT22;9999;48.780;9.146;2023-09-08T05:19:03;16.40;99.90
7512;DHT22;9999;48.780;9.146;2023-09-08T05:21:31;16.40;99.90
7512;DHT22;9999;48.780;9.146;2023-09-08T05:23:58;16.40;99.90
7512;DHT22;9999;48.780;9.146;2023-09-08T05:26:26;16.40;99.90
7512;DHT22;9999;48.780;9.146;2023-09-08T05:28:54;16.40;99.90
7512;DHT22;9999;48.780;9.146;2023-09-08T05:31:20;16.50;99.90
7512;DHT22;9999;48.780;9.146;2023-09-08T05:33:48;16.40;99.90
7512;DHT22;9999;48.780;9.146;2023-09-08T05:36:14;16.50;99.90
7512;DHT22;9999;48.780;9.146;2023-09-08T05:38:41;16.50;99.90
7512;DHT22;9999;48.780;9.146;2023-09-08T05:41:08;16.50;99.90
7512;DHT22;9999;48.780;9.146;2023-09-08T05:43:36;16.50;99.90
7512;DHT22;9999;48.780;9.146;2023-09-08T05:46:03;16.50;99.90
7512;DHT22;9999;48.780;9.146;2023-09-08T05:48:31;16.50;99.90
7512;DHT22;9999;48.780;9.146;2023-09-08T05:50:58;16.50;99.90
7512;DHT22;9999;48.780;9.146;2023-09-08T05:53:25;16.60;99.90
7512;DHT22;9999;48.780;9.146;2023-09-08T05:55:52;16.60;99.90
7512;DHT22;9999;48.780;9.146;2023-09-08T05:58:19;16.50;99.90
7512;DHT22;9999;48.780;9.146;2023-09-08T06:00:48;16.50;99.90
7512;DHT22;9999;48.780;9.146;2023-09-08T06:03:14;16.50;99.90
7512;DHT22;9999;48.780;9.146;2023-09-08T06:05:41;16.50;99.90
7512;DHT22;9999;48.780;9.146;2023-09-08T06:08:08;16.60;99.90
7512;DHT22;9999;48.780;9.146;2023-09-08T06:10:39;16.70;99.90
7512;DHT22;9999;48.780;9.146;2023-09-08T06:13:06;16.70;99.90
7512;DHT22;9999;48.780;9.146;2023-09-08T06:15:33;16.80;99.90
7512;DHT22;9999;48.780;9.146;2023-09-08T06:18:01;16.90;99.90
7512;DHT22;9999;48.780;9.146;2023-09-08T06:20:28;16.90;99.90
7512;DHT22;9999;48.780;9.146;2023-09-08T06:22:55;16.90;99.90
7512;DHT22;9999;48.780;9.146;2023-09-08T06:25:22;17.00;99.90
7512;DHT22;9999;48.780;9.146;2023-09-08T06:27:49;17.10;99.90
7512;DHT22;9999;48.780;9.146;2023-09-08T06:30:17;17.10;99.90
7512;DHT22;9999;48.780;9.146;2023-09-08T06:32:44;17.20;99.90
7512;DHT22;9999;48.780;9.146;2023-09-08T06:35:13;17.20;99.90
7512;DHT22;9999;48.780;9.146;2023-09-08T06:37:42;17.30;99.90
7512;DHT22;9999;48.780;9.146;2023-09-08T06:40:10;17.30;99.90
7512;DHT22;9999;48.780;9.146;2023-09-08T06:42:37;17.40;99.90
7512;DHT22;9999;48.780;9.146;2023-09-08T06:45:13;17.40;99.90
7512;DHT22;9999;48.780;9.146;2023-09-08T06:47:40;17.40;99.90
7512;DHT22;9999;48.780;9.146;2023-09-08T06:50:07;17.50;99.90
7512;DHT22;9999;48.780;9.146;2023-09-08T06:52:36;17.70;99.90
7512;DHT22;9999;48.780;9.146;2023-09-08T06:55:03;18.00;99.90
7512;DHT22;9999;48.780;9.146;2023-09-08T06:57:31;18.20;99.90
7512;DHT22;9999;48.780;9.146;2023-09-08T06:59:58;18.40;99.90
7512;DHT22;9999;48.780;9.146;2023-09-08T07:02:25;18.50;99.90
7512;DHT22;9999;48.780;9.146;2023-09-08T07:04:52;18.70;99.90
7512;DHT22;9999;48.780;9.146;2023-09-08T07:07:19;18.90;99.90
7512;DHT22;9999;48.780;9.146;2023-09-08T07:09:48;19.30;99.90
7512;DHT22;9999;48.780;9.146;2023-09-08T07:12:15;19.70;99.90
7512;DHT22;9999;48.780;9.146;2023-09-08T07:14:42;20.20;99.90
7512;DHT22;9999;48.780;9.146;2023-09-08T07:17:09;20.90;99.90
7512;DHT22;9999;48.780;9.146;2023-09-08T07:19:36;21.40;99.90
7512;DHT22;9999;48.780;9.146;2023-09-08T07:22:03;21.80;99.90
7512;DHT22;9999;48.780;9.146;2023-09-08T07:24:31;22.20;99.90
7512;DHT22;9999;48.780;9.146;2023-09-08T07:27:00;22.40;99.90
7512;DHT22;9999;48.780;9.146;2023-09-08T07:29:28;22.70;99.90
7512;DHT22;9999;48.780;9.146;2023-09-08T07:31:56;23.00;99.90
7512;DHT22;9999;48.780;9.146;2023-09-08T07:34:23;23.40;99.90
7512;DHT22;9999;48.780;9.146;2023-09-08T07:36:50;23.40;99.90
7512;DHT22;9999;48.780;9.146;2023-09-08T07:39:16;23.60;99.90
7512;DHT22;9999;48.780;9.146;2023-09-08T07:41:44;23.80;99.90
7512;DHT22;9999;48.780;9.146;2023-09-08T07:44:12;24.00;99.90
7512;DHT22;9999;48.780;9.146;2023-09-08T07:46:40;24.20;99.90
7512;DHT22;9999;48.780;9.146;2023-09-08T07:49:12;23.90;99.90
7512;DHT22;9999;48.780;9.146;2023-09-08T07:51:40;24.00;99.90
7512;DHT22;9999;48.780;9.146;2023-09-08T07:54:07;23.90;99.90
7512;DHT22;9999;48.780;9.146;2023-09-08T07:56:34;23.60;99.90
7512;DHT22;9999;48.780;9.146;2023-09-08T07:59:00;23.50;99.90
7512;DHT22;9999;48.780;9.146;2023-09-08T08:01:29;23.50;99.90
7512;DHT22;9999;48.780;9.146;2023-09-08T08:03:55;23.50;99.90
7512;DHT22;9999;48.780;9.146;2023-09-08T08:06:22;23.30;99.90
7512;DHT22;9999;48.780;9.146;2023-09-08T08:08:49;23.10;99.90
7512;DHT22;9999;48.780;9.146;2023-09-08T08:11:19;22.80;99.90
7512;DHT22;9999;48.780;9.146;2023-09-08T08:13:47;22.90;99.90
7512;DHT22;9999;48.780;9.146;2023-09-08T08:16:13;22.80;99.90
7512;DHT22;9999;48.780;9.146;2023-09-08T08:18:45;22.80;99.90
7512;DHT22;9999;48.780;9.146;2023-09-08T08:21:12;23.00;99.90
7512;DHT22;9999;48.780;9.146;2023-09-08T08:23:39;23.20;99.90
7512;DHT22;9999;48.780;9.146;2023-09-08T08:26:05;23.10;99.90
7512;DHT22;9999;48.780;9.146;2023-09-08T08:28:33;23.30;99.90
7512;DHT22;9999;48.780;9.146;2023-09-08T08:31:00;23.30;99.90
7512;DHT22;9999;48.780;9.146;2023-09-08T08:33:26;23.20;99.90
7512;DHT22;9999;48.780;9.146;2023-09-08T08:35:56;23.20;99.90
7512;DHT22;9999;48.780;9.146;2023-09-08T08:38:23;23.20;99.90
7512;DHT22;9999;48.780;9.146;2023-09-08T08:40:51;23.20;99.90
7512;DHT22;9999;48.780;9.146;2023-09-08T08:43:18;23.10;99.90
7512;DHT22;9999;48.780;9.146;2023-09-08T08:45:46;23.00;99.90
7512;DHT22;9999;48.780;9.146;2023-09-08T08:48:14;23.10;99.90
7512;DHT22;9999;48.780;9.146;2023-09-08T08:50:42;23.20;99.90
7512;DHT22;9999;48.780;9.146;2023-09-08T08:53:14;23.40;99.90
7512;DHT22;9999;48.780;9.146;2023-09-08T08:55:42;23.60;99.90
7512;DHT22;9999;48.780;9.146;2023-09-08T08:58:12;23.60;99.90
7512;DHT22;9999;48.780;9.146;2023-09-08T09:00:41;23.60;99.90
7512;DHT22;9999;48.780;9.146;2023-09-08T09:03:09;23.60;99.90
7512;DHT22;9999;48.780;9.146;2023-09-08T09:05:36;23.60;99.90
7512;DHT22;9999;48.780;9.146;2023-09-08T09:08:04;23.70;99.90
7512;DHT22;9999;48.780;9.146;2023-09-08T09:10:35;23.70;99.90
7512;DHT22;9999;48.780;9.146;2023-09-08T09:13:02;23.90;99.90
7512;DHT22;9999;48.780;9.146;2023-09-08T09:15:29;24.00;99.90
7512;DHT22;9999;48.780;9.146;2023-09-08T09:18:04;24.10;99.90
7512;DHT22;9999;48.780;9.146;2023-09-08T09:20:32;24.10;99.90
7512;DHT22;9999;48.780;9.146;2023-09-08T09:23:02;24.20;99.90
7512;DHT22;9999;48.780;9.146;2023-09-08T09:25:32;24.30;99.90
7512;DHT22;9999;48.780;9.146;2023-09-08T09:28:02;24.30;99.90
7512;DHT22;9999;48.780;9.146;2023-09-08T09:30:46;24.30;99.90
7512;DHT22;9999;48.780;9.146;2023-09-08T09:33:17;24.50;99.90
7512;DHT22;9999;48.780;9.146;2023-09-08T09:35:45;24.70;99.90
7512;DHT22;9999;48.780;9.146;2023-09-08T09:38:13;24.80;99.90
7512;DHT22;9999;48.780;9.146;2023-09-08T09:40:40;24.80;99.90
7512;DHT22;9999;48.780;9.146;2023-09-08T09:43:10;24.90;99.90
7512;DHT22;9999;48.780;9.146;2023-09-08T09:45:37;25.10;99.90
7512;DHT22;9999;48.780;9.146;2023-09-08T09:48:06;25.20;99.90
7512;DHT22;9999;48.780;9.146;2023-09-08T09:50:35;25.20;99.90
7512;DHT22;9999;48.780;9.146;2023-09-08T09:53:09;25.10;99.90
7512;DHT22;9999;48.780;9.146;2023-09-08T09:55:37;25.20;99.90
7512;DHT22;9999;48.780;9.146;2023-09-08T09:58:05;25.30;99.90
7512;DHT22;9999;48.780;9.146;2023-09-08T10:00:34;25.30;99.90
7512;DHT22;9999;48.780;9.146;2023-09-08T10:03:04;25.40;99.90
7512;DHT22;9999;48.780;9.146;2023-09-08T10:05:31;25.50;99.90
7512;DHT22;9999;48.780;9.146;2023-09-08T10:07:58;25.80;99.90
7512;DHT22;9999;48.780;9.146;2023-09-08T10:10:27;25.90;99.90
7512;DHT22;9999;48.780;9.146;2023-09-08T10:12:55;26.00;99.90
7512;DHT22;9999;48.780;9.146;2023-09-08T10:15:24;26.10;99.90
7512;DHT22;9999;48.780;9.146;2023-09-08T10:17:54;26.20;99.90
7512;DHT22;9999;48.780;9.146;2023-09-08T10:20:23;26.20;99.90
7512;DHT22;9999;48.780;9.146;2023-09-08T10:22:53;26.40;99.90
7512;DHT22;9999;48.780;9.146;2023-09-08T10:25:25;26.30;99.90
7512;DHT22;9999;48.780;9.146;2023-09-08T10:27:55;26.40;99.90
7512;DHT22;9999;48.780;9.146;2023-09-08T10:30:23;26.50;99.90
7512;DHT22;9999;48.780;9.146;2023-09-08T10:32:51;26.50;99.90
7512;DHT22;9999;48.780;9.146;2023-09-08T10:35:19;26.50;99.90
7512;DHT22;9999;48.780;9.146;2023-09-08T10:37:46;26.60;99.90
7512;DHT22;9999;48.780;9.146;2023-09-08T10:40:23;26.70;99.90
7512;DHT22;9999;48.780;9.146;2023-09-08T10:43:07;26.90;99.90
7512;DHT22;9999;48.780;9.146;2023-09-08T10:45:34;26.90;99.90
7512;DHT22;9999;48.780;9.146;2023-09-08T10:48:03;27.20;99.90
7512;DHT22;9999;48.780;9.146;2023-09-08T10:50:35;27.20;99.90
7512;DHT22;9999;48.780;9.146;2023-09-08T10:53:12;27.40;99.90
7512;DHT22;9999;48.780;9.146;2023-09-08T10:55:41;27.60;99.90
7512;DHT22;9999;48.780;9.146;2023-09-08T10:58:10;27.60;99.90
7512;DHT22;9999;48.780;9.146;2023-09-08T11:00:43;27.60;99.90
7512;DHT22;9999;48.780;9.146;2023-09-08T11:03:12;27.70;99.90
7512;DHT22;9999;48.780;9.146;2023-09-08T11:05:41;27.80;99.90
7512;DHT22;9999;48.780;9.146;2023-09-08T11:08:08;27.90;99.90
7512;DHT22;9999;48.780;9.146;2023-09-08T11:10:35;27.90;99.90
7512;DHT22;9999;48.780;9.146;2023-09-08T11:13:04;28.20;99.90
7512;DHT22;9999;48.780;9.146;2023-09-08T11:15:31;28.30;99.90
7512;DHT22;9999;48.780;9.146;2023-09-08T11:18:05;28.20;99.90
7512;DHT22;9999;48.780;9.146;2023-09-08T11:20:31;28.60;99.90
7512;DHT22;9999;48.780;9.146;2023-09-08T11:23:00;28.80;99.90
7512;DHT22;9999;48.780;9.146;2023-09-08T11:25:27;28.90;99.90
7512;DHT22;9999;48.780;9.146;2023-09-08T11:27:55;28.80;99.90
7512;DHT22;9999;48.780;9.146;2023-09-08T11:30:21;28.70;99.90
7512;DHT22;9999;48.780;9.146;2023-09-08T11:32:48;28.50;99.90
7512;DHT22;9999;48.780;9.146;2023-09-08T11:35:16;28.60;99.90
7512;DHT22;9999;48.780;9.146;2023-09-08T11:37:46;28.70;99.90
7512;DHT22;9999;48.780;9.146;2023-09-08T11:40:16;28.80;99.90
7512;DHT22;9999;48.780;9.146;2023-09-08T11:42:45;28.90;99.90
7512;DHT22;9999;48.780;9.146;2023-09-08T11:45:12;28.90;99.90
7512;DHT22;9999;48.780;9.146;2023-09-08T11:47:41;28.90;99.90
7512;DHT22;9999;48.780;9.146;2023-09-08T11:50:09;29.20;99.90
7512;DHT22;9999;48.780;9.146;2023-09-08T11:52:41;29.20;99.90
7512;DHT22;9999;48.780;9.146;2023-09-08T11:55:10;29.10;99.90
7512;DHT22;9999;48.780;9.146;2023-09-08T11:57:40;29.10;99.90
7512;DHT22;9999;48.780;9.146;2023-09-08T12:00:08;29.30;99.90
7512;DHT22;9999;48.780;9.146;2023-09-08T12:02:36;29.20;99.90
7512;DHT22;9999;48.780;9.146;2023-09-08T12:05:04;29.40;98.90
7512;DHT22;9999;48.780;9.146;2023-09-08T12:07:31;29.10;99.90
7512;DHT22;9999;48.780;9.146;2023-09-08T12:09:58;29.00;99.90
7512;DHT22;9999;48.780;9.146;2023-09-08T12:12:25;29.10;99.90
7512;DHT22;9999;48.780;9.146;2023-09-08T12:14:54;29.30;99.80
7512;DHT22;9999;48.780;9.146;2023-09-08T12:17:21;29.40;99.90
7512;DHT22;9999;48.780;9.146;2023-09-08T12:19:50;29.80;99.90
7512;DHT22;9999;48.780;9.146;2023-09-08T12:22:18;29.80;99.90
7512;DHT22;9999;48.780;9.146;2023-09-08T12:24:57;29.70;98.30
7512;DHT22;9999;48.780;9.146;2023-09-08T12:27:24;29.90;99.00
7512;DHT22;9999;48.780;9.146;2023-09-08T12:29:59;30.00;97.30
7512;DHT22;9999;48.780;9.146;2023-09-08T12:32:30;30.20;96.10
7512;DHT22;9999;48.780;9.146;2023-09-08T12:34:58;30.20;97.40
7512;DHT22;9999;48.780;9.146;2023-09-08T12:37:27;30.40;96.30
7512;DHT22;9999;48.780;9.146;2023-09-08T12:39:54;30.60;96.00
7512;DHT22;9999;48.780;9.146;2023-09-08T12:42:22;30.40;95.60
7512;DHT22;9999;48.780;9.146;2023-09-08T12:44:51;30.50;95.90
7512;DHT22;9999;48.780;9.146;2023-09-08T12:47:19;30.30;93.90
7512;DHT22;9999;48.780;9.146;2023-09-08T12:49:46;30.00;95.50
7512;DHT22;9999;48.780;9.146;2023-09-08T12:52:13;30.00;95.60
7512;DHT22;9999;48.780;9.146;2023-09-08T12:54:40;30.10;95.40
7512;DHT22;9999;48.780;9.146;2023-09-08T12:57:07;30.10;94.00
7512;DHT22;9999;48.780;9.146;2023-09-08T12:59:34;30.10;95.60
7512;DHT22;9999;48.780;9.146;2023-09-08T13:02:01;30.30;93.70
7512;DHT22;9999;48.780;9.146;2023-09-08T13:04:30;30.40;93.50
7512;DHT22;9999;48.780;9.146;2023-09-08T13:06:57;30.30;94.80
7512;DHT22;9999;48.780;9.146;2023-09-08T13:09:26;30.20;93.10
7512;DHT22;9999;48.780;9.146;2023-09-08T13:11:53;30.20;93.60
7512;DHT22;9999;48.780;9.146;2023-09-08T13:14:20;30.20;94.40
7512;DHT22;9999;48.780;9.146;2023-09-08T13:16:51;30.00;94.40
7512;DHT22;9999;48.780;9.146;2023-09-08T13:19:18;30.30;93.20
7512;DHT22;9999;48.780;9.146;2023-09-08T13:21:46;30.20;91.70
7512;DHT22;9999;48.780;9.146;2023-09-08T13:24:13;29.70;92.60
7512;DHT22;9999;48.780;9.146;2023-09-08T13:26:39;29.80;94.80
7512;DHT22;9999;48.780;9.146;2023-09-08T13:29:06;30.00;92.10
7512;DHT22;9999;48.780;9.146;2023-09-08T13:31:33;29.90;92.60
7512;DHT22;9999;48.780;9.146;2023-09-08T13:34:00;29.90;91.80
7512;DHT22;9999;48.780;9.146;2023-09-08T13:36:27;29.90;93.00
7512;DHT22;9999;48.780;9.146;2023-09-08T13:38:55;29.80;93.30
7512;DHT22;9999;48.780;9.146;2023-09-08T13:41:21;30.00;93.60
7512;DHT22;9999;48.780;9.146;2023-09-08T13:43:48;30.10;92.00
7512;DHT22;9999;48.780;9.146;2023-09-08T13:46:15;30.10;92.10
7512;DHT22;9999;48.780;9.146;2023-09-08T13:48:42;30.10;92.40
7512;DHT22;9999;48.780;9.146;2023-09-08T13:51:09;30.10;91.80
7512;DHT22;9999;48.780;9.146;2023-09-08T13:53:35;30.10;91.80
7512;DHT22;9999;48.780;9.146;2023-09-08T13:56:05;30.00;91.70
7512;DHT22;9999;48.780;9.146;2023-09-08T13:58:32;30.00;92.50
7512;DHT22;9999;48.780;9.146;2023-09-08T14:00:58;29.90;91.70
7512;DHT22;9999;48.780;9.146;2023-09-08T14:03:25;30.10;91.20
7512;DHT22;9999;48.780;9.146;2023-09-08T14:05:52;30.10;91.30
7512;DHT22;9999;48.780;9.146;2023-09-08T14:08:19;30.10;90.90
7512;DHT22;9999;48.780;9.146;2023-09-08T14:10:46;30.10;91.30
7512;DHT22;9999;48.780;9.146;2023-09-08T14:13:14;30.10;90.60
7512;DHT22;9999;48.780;9.146;2023-09-08T14:15:41;29.90;92.20
7512;DHT22;9999;48.780;9.146;2023-09-08T14:18:08;30.00;91.80
7512;DHT22;9999;48.780;9.146;2023-09-08T14:20:35;30.00;90.80
7512;DHT22;9999;48.780;9.146;2023-09-08T14:23:02;30.20;91.70
7512;DHT22;9999;48.780;9.146;2023-09-08T14:25:29;30.20;90.50
7512;DHT22;9999;48.780;9.146;2023-09-08T14:27:56;30.10;90.60
7512;DHT22;9999;48.780;9.146;2023-09-08T14:30:24;30.20;90.00
7512;DHT22;9999;48.780;9.146;2023-09-08T14:32:51;30.20;90.70
7512;DHT22;9999;48.780;9.146;2023-09-08T14:35:18;30.10;89.00
7512;DHT22;9999;48.780;9.146;2023-09-08T14:37:46;30.00;90.60
7512;DHT22;9999;48.780;9.146;2023-09-08T14:40:14;29.90;90.60
7512;DHT22;9999;48.780;9.146;2023-09-08T14:42:41;29.80;91.20
7512;DHT22;9999;48.780;9.146;2023-09-08T14:45:09;30.00;90.50
7512;DHT22;9999;48.780;9.146;2023-09-08T14:47:37;29.90;89.40
7512;DHT22;9999;48.780;9.146;2023-09-08T14:50:05;29.80;89.50
7512;DHT22;9999;48.780;9.146;2023-09-08T14:52:32;29.70;91.50
7512;DHT22;9999;48.780;9.146;2023-09-08T14:54:58;29.70;89.80
7512;DHT22;9999;48.780;9.146;2023-09-08T14:57:25;29.70;90.30
7512;DHT22;9999;48.780;9.146;2023-09-08T14:59:52;29.60;90.50
7512;DHT22;9999;48.780;9.146;2023-09-08T15:02:21;29.60;88.70
7512;DHT22;9999;48.780;9.146;2023-09-08T15:04:49;29.70;90.40
7512;DHT22;9999;48.780;9.146;2023-09-08T15:07:16;29.60;90.60
7512;DHT22;9999;48.780;9.146;2023-09-08T15:09:42;29.60;91.60
7512;DHT22;9999;48.780;9.146;2023-09-08T15:12:09;29.60;91.00
7512;DHT22;9999;48.780;9.146;2023-09-08T15:14:37;29.40;90.20
7512;DHT22;9999;48.780;9.146;2023-09-08T15:17:05;29.40;90.30
7512;DHT22;9999;48.780;9.146;2023-09-08T15:19:32;29.30;91.20
7512;DHT22;9999;48.780;9.146;2023-09-08T15:22:00;29.40;91.90
7512;DHT22;9999;48.780;9.146;2023-09-08T15:24:27;29.40;90.50
7512;DHT22;9999;48.780;9.146;2023-09-08T15:26:53;29.50;91.90
7512;DHT22;9999;48.780;9.146;2023-09-08T15:29:22;29.30;90.70
7512;DHT22;9999;48.780;9.146;2023-09-08T15:31:49;29.10;91.10
7512;DHT22;9999;48.780;9.146;2023-09-08T15:34:16;29.10;91.60
7512;DHT22;9999;48.780;9.146;2023-09-08T15:36:43;29.10;91.70
7512;DHT22;9999;48.780;9.146;2023-09-08T15:39:11;29.10;90.90
7512;DHT22;9999;48.780;9.146;2023-09-08T15:41:38;29.10;91.00
7512;DHT22;9999;48.780;9.146;2023-09-08T15:44:05;29.10;91.50
7512;DHT22;9999;48.780;9.146;2023-09-08T15:46:32;29.00;91.10
7512;DHT22;9999;48.780;9.146;2023-09-08T15:48:58;29.00;91.20
7512;DHT22;9999;48.780;9.146;2023-09-08T15:51:25;28.90;91.40
7512;DHT22;9999;48.780;9.146;2023-09-08T15:53:52;28.80;91.20
7512;DHT22;9999;48.780;9.146;2023-09-08T15:56:20;28.70;91.50
7512;DHT22;9999;48.780;9.146;2023-09-08T15:58:47;28.50;90.90
7512;DHT22;9999;48.780;9.146;2023-09-08T16:01:14;28.40;91.90
7512;DHT22;9999;48.780;9.146;2023-09-08T16:03:41;28.40;92.20
7512;DHT22;9999;48.780;9.146;2023-09-08T16:06:08;28.40;92.50